Time;durP1;ratioP1;P1;durP2;ratioP2;P2;SDS_P1;SDS_P2;PMS_P1;PMS_P2;Temp;Humidity;BMP_temperature;BMP_pressure;BME280_temperature;BME280_humidity;BME280_pressure;Samples;Min_cycle;Max_cycle;Signal;HPM_P1;HPM_P2
2021/08/03 00:01:15;;;;;;;24.73;11.37;;;12.40;99.90;;;;;;5026493;28;20543;-56
2021/08/03 00:03:50;;;;;;;69.97;11.67;;;12.40;99.90;;;;;;5027888;28;20530;-56
2021/08/03 00:06:17;;;;;;;28.30;10.20;;;12.40;99.90;;;;;;5027602;28;20468;-57
2021/08/03 00:08:46;;;;;;;26.33;11.47;;;12.30;99.90;;;;;;5028185;28;20962;-54
2021/08/03 00:11:12;;;;;;;49.90;13.10;;;12.30;99.90;;;;;;5027018;28;20441;-56
2021/08/03 00:13:39;;;;;;;27.90;11.20;;;12.30;99.90;;;;;;5023425;28;20931;-57
2021/08/03 00:16:11;;;;;;;22.50;8.73;;;12.30;99.90;;;;;;5021248;28;20454;-58
2021/08/03 00:18:40;;;;;;;32.73;9.07;;;12.30;99.90;;;;;;5021292;28;20430;-55
2021/08/03 00:21:08;;;;;;;20.77;10.20;;;12.30;99.90;;;;;;5009061;28;20427;-57
2021/08/03 00:23:37;;;;;;;32.47;12.33;;;12.30;99.90;;;;;;5007463;28;20426;-55
2021/08/03 00:26:03;;;;;;;87.50;12.97;;;12.30;99.90;;;;;;5017324;28;20439;-56
2021/08/03 00:28:28;;;;;;;54.73;12.80;;;12.20;99.90;;;;;;5027158;28;20426;-57
2021/08/03 00:30:55;;;;;;;80.90;13.40;;;12.20;99.90;;;;;;5017344;28;20723;-57
2021/08/03 00:33:20;;;;;;;41.83;11.70;;;12.10;99.90;;;;;;5025151;28;20241;-57
2021/08/03 00:35:52;;;;;;;36.53;10.67;;;12.10;99.90;;;;;;5029177;28;20849;-54
2021/08/03 00:38:18;;;;;;;24.70;9.70;;;12.10;99.90;;;;;;5027643;28;20203;-56
2021/08/03 00:41:07;;;;;;;47.13;12.03;;;12.00;99.90;;;;;;5008288;28;20473;-56
2021/08/03 00:43:33;;;;;;;28.03;10.20;;;12.00;99.90;;;;;;5021970;28;20787;-56
2021/08/03 00:45:59;;;;;;;21.73;10.10;;;12.00;99.90;;;;;;5023746;28;20446;-56
2021/08/03 00:48:25;;;;;;;33.43;11.70;;;12.00;99.90;;;;;;5023186;28;20568;-56
2021/08/03 00:50:51;;;;;;;24.70;10.80;;;12.00;99.90;;;;;;5024025;28;20246;-56
2021/08/03 00:53:16;;;;;;;17.50;7.60;;;12.00;99.90;;;;;;5019790;28;20462;-57
2021/08/03 00:55:42;;;;;;;15.20;7.80;;;12.10;99.90;;;;;;5013775;28;20207;-56
2021/08/03 00:58:11;;;;;;;16.87;7.20;;;12.10;99.90;;;;;;5026762;28;20202;-56
2021/08/03 01:00:37;;;;;;;8.97;5.73;;;12.10;99.90;;;;;;5024525;28;20430;-55
2021/08/03 01:03:03;;;;;;;11.60;6.43;;;12.10;99.90;;;;;;5017786;28;20473;-56
2021/08/03 01:05:41;;;;;;;17.33;5.90;;;12.10;99.90;;;;;;5020764;28;20485;-56
2021/08/03 01:08:24;;;;;;;14.57;6.50;;;12.10;99.90;;;;;;5024831;28;20233;-56
2021/08/03 01:11:09;;;;;;;12.70;6.50;;;12.10;99.90;;;;;;5020136;28;20459;-57
2021/08/03 01:13:47;;;;;;;9.77;6.20;;;12.10;99.90;;;;;;5021459;28;20966;-56
2021/08/03 01:16:52;;;;;;;18.43;5.70;;;12.10;99.90;;;;;;5022513;28;20481;-57
2021/08/03 01:19:36;;;;;;;10.17;4.90;;;12.00;99.90;;;;;;5015153;28;20447;-56
2021/08/03 01:22:07;;;;;;;8.00;4.90;;;12.00;99.90;;;;;;5022903;28;20645;-56
2021/08/03 01:24:50;;;;;;;7.80;5.13;;;12.00;99.90;;;;;;5021351;28;20438;-56
2021/08/03 01:27:19;;;;;;;13.00;4.57;;;12.00;99.90;;;;;;5026178;28;20446;-57
2021/08/03 01:29:48;;;;;;;18.50;8.30;;;12.00;99.90;;;;;;5025352;28;20465;-57
2021/08/03 01:32:18;;;;;;;20.47;7.80;;;12.00;99.90;;;;;;5022006;28;20438;-56
2021/08/03 01:34:47;;;;;;;14.40;6.17;;;12.00;99.90;;;;;;5015338;28;20923;-56
2021/08/03 01:37:22;;;;;;;18.10;5.80;;;11.90;99.90;;;;;;5007227;28;20471;-56
2021/08/03 01:39:53;;;;;;;37.90;12.90;;;11.90;99.90;;;;;;5026735;28;20446;-56
2021/08/03 01:42:20;;;;;;;34.10;12.70;;;11.90;99.90;;;;;;5022854;28;20434;-58
2021/08/03 01:44:47;;;;;;;19.80;7.30;;;11.80;99.90;;;;;;5021562;28;20449;-56
2021/08/03 01:47:16;;;;;;;7.73;4.37;;;11.80;99.90;;;;;;5022744;28;20500;-56
2021/08/03 01:49:42;;;;;;;14.57;4.97;;;11.80;99.90;;;;;;5027033;28;20469;-57
2021/08/03 01:52:10;;;;;;;13.13;4.57;;;11.80;99.90;;;;;;5008643;28;20445;-55
2021/08/03 01:54:37;;;;;;;4.80;4.00;;;11.80;99.90;;;;;;5018400;28;20549;-56
2021/08/03 01:57:05;;;;;;;6.83;4.43;;;11.70;99.90;;;;;;5022598;28;20464;-57
2021/08/03 01:59:32;;;;;;;7.47;6.30;;;11.70;99.90;;;;;;5027430;28;20841;-56
2021/08/03 02:02:00;;;;;;;9.27;5.73;;;11.60;99.90;;;;;;5026519;28;20452;-56
2021/08/03 02:04:27;;;;;;;14.83;6.43;;;11.60;99.90;;;;;;5029274;28;20430;-58
2021/08/03 02:06:54;;;;;;;25.00;6.00;;;11.70;99.90;;;;;;5012610;28;20461;-56
2021/08/03 02:09:22;;;;;;;6.10;4.33;;;11.60;99.90;;;;;;5027864;28;20554;-56
2021/08/03 02:11:50;;;;;;;9.60;5.07;;;11.60;99.90;;;;;;5022072;28;20442;-57
2021/08/03 02:14:17;;;;;;;10.80;4.83;;;11.60;99.90;;;;;;5027514;28;20840;-56
2021/08/03 02:16:43;;;;;;;18.70;4.60;;;11.50;99.90;;;;;;5022453;28;20458;-55
2021/08/03 02:19:09;;;;;;;34.57;6.87;;;11.50;99.90;;;;;;5028656;28;20438;-57
2021/08/03 02:21:35;;;;;;;59.60;7.20;;;11.50;99.90;;;;;;5027398;28;20453;-55
2021/08/03 02:24:00;;;;;;;12.07;5.10;;;11.40;99.90;;;;;;5021780;28;20184;-55
2021/08/03 02:26:26;;;;;;;6.63;4.57;;;11.40;99.90;;;;;;5008533;28;20218;-56
2021/08/03 02:28:52;;;;;;;17.50;5.37;;;11.40;99.90;;;;;;5024374;28;20198;-58
2021/08/03 02:31:56;;;;;;;11.97;4.03;;;11.40;99.90;;;;;;5020429;28;20176;-56
2021/08/03 02:34:30;;;;;;;14.93;3.57;;;11.40;99.90;;;;;;5021114;28;20260;-57
2021/08/03 02:37:00;;;;;;;4.00;3.53;;;11.40;99.90;;;;;;5023346;28;20958;-55
2021/08/03 02:39:28;;;;;;;12.13;3.10;;;11.40;99.90;;;;;;5025133;28;20434;-56
2021/08/03 02:41:55;;;;;;;9.43;2.97;;;11.40;99.90;;;;;;5027383;28;20446;-56
2021/08/03 02:44:23;;;;;;;8.77;2.90;;;11.40;99.90;;;;;;5022833;28;20476;-58
2021/08/03 02:46:55;;;;;;;7.43;2.67;;;11.40;99.90;;;;;;5028409;28;20489;-59
2021/08/03 02:49:34;;;;;;;10.63;2.90;;;11.40;99.90;;;;;;5020999;28;20605;-56
2021/08/03 02:52:04;;;;;;;13.00;3.40;;;11.30;99.90;;;;;;5027787;28;20837;-57
2021/08/03 02:54:34;;;;;;;10.17;4.03;;;11.30;99.90;;;;;;5027319;28;20864;-55
2021/08/03 02:57:04;;;;;;;118.73;7.43;;;11.20;99.90;;;;;;5025795;28;21160;-55
2021/08/03 02:59:34;;;;;;;9.63;4.80;;;11.20;99.90;;;;;;5023515;28;20518;-57
2021/08/03 03:02:03;;;;;;;43.47;5.43;;;11.10;99.90;;;;;;5021772;28;20439;-56
2021/08/03 03:04:58;;;;;;;46.67;5.63;;;11.10;99.90;;;;;;5025074;28;20435;-56
2021/08/03 03:07:33;;;;;;;19.50;4.00;;;11.10;99.90;;;;;;5022862;28;20462;-57
2021/08/03 03:10:03;;;;;;;7.63;4.10;;;11.00;99.90;;;;;;5025594;28;20460;-56
2021/08/03 03:12:33;;;;;;;13.60;4.87;;;11.00;99.90;;;;;;5022383;28;21035;-58
2021/08/03 03:15:02;;;;;;;20.23;16.00;;;11.00;99.90;;;;;;5026828;28;20418;-56
2021/08/03 03:17:32;;;;;;;7.20;3.70;;;11.00;99.90;;;;;;5028535;28;20454;-56
2021/08/03 03:19:59;;;;;;;4.93;3.90;;;11.00;99.90;;;;;;5025116;28;20433;-57
2021/08/03 03:22:26;;;;;;;23.83;5.30;;;11.10;99.90;;;;;;5018305;28;20422;-58
2021/08/03 03:24:54;;;;;;;8.67;4.00;;;11.10;99.90;;;;;;5022636;28;20853;-56
2021/08/03 03:27:21;;;;;;;12.73;3.40;;;11.00;99.90;;;;;;5026000;28;21144;-55
2021/08/03 03:29:49;;;;;;;8.27;3.77;;;11.00;99.90;;;;;;5019771;28;21021;-57
2021/08/03 03:32:15;;;;;;;44.60;6.20;;;11.00;99.90;;;;;;5023072;28;20451;-56
2021/08/03 03:34:42;;;;;;;6.87;4.10;;;10.90;99.90;;;;;;5025405;28;20437;-56
2021/08/03 03:37:08;;;;;;;18.17;4.20;;;10.90;99.90;;;;;;5025162;28;20469;-58
2021/08/03 03:39:36;;;;;;;11.73;5.10;;;10.90;99.90;;;;;;5026979;28;20430;-56
2021/08/03 03:42:04;;;;;;;6.17;4.33;;;10.90;99.90;;;;;;5022248;28;20176;-57
2021/08/03 03:44:31;;;;;;;10.90;4.73;;;11.00;99.90;;;;;;5018607;28;20939;-57
2021/08/03 03:47:19;;;;;;;9.70;3.60;;;11.00;99.90;;;;;;5007984;28;20488;-58
2021/08/03 03:49:51;;;;;;;9.40;4.17;;;10.90;99.90;;;;;;5025077;28;20461;-56
2021/08/03 03:52:20;;;;;;;6.00;4.47;;;10.90;99.90;;;;;;5010698;28;20422;-56
2021/08/03 03:54:48;;;;;;;137.27;8.67;;;10.90;99.90;;;;;;5009507;28;20438;-57
2021/08/03 03:57:16;;;;;;;88.87;6.37;;;10.90;99.90;;;;;;5024976;28;20454;-55
2021/08/03 03:59:45;;;;;;;13.23;3.90;;;10.80;99.90;;;;;;5021986;28;20435;-56
2021/08/03 04:02:13;;;;;;;16.03;4.43;;;10.80;99.90;;;;;;5021414;28;20427;-58
2021/08/03 04:04:41;;;;;;;4.13;3.63;;;10.80;99.90;;;;;;5018802;28;20517;-57
2021/08/03 04:07:07;;;;;;;12.67;3.90;;;10.80;99.90;;;;;;5021772;28;20453;-56
2021/08/03 04:09:38;;;;;;;13.60;3.87;;;10.80;99.90;;;;;;5021810;28;20465;-57
2021/08/03 04:12:04;;;;;;;6.30;3.73;;;10.80;99.90;;;;;;5026838;28;20176;-57
2021/08/03 04:14:30;;;;;;;38.37;5.20;;;10.80;99.90;;;;;;5019067;28;20428;-56
2021/08/03 04:16:57;;;;;;;14.63;5.87;;;10.80;99.90;;;;;;5022638;28;20569;-56
2021/08/03 04:19:22;;;;;;;11.57;6.30;;;10.80;99.90;;;;;;5019034;28;20183;-55
2021/08/03 04:21:49;;;;;;;14.17;5.40;;;10.80;99.90;;;;;;5024952;28;20529;-57
2021/08/03 04:24:18;;;;;;;12.80;5.60;;;10.80;99.90;;;;;;5021740;28;20180;-56
2021/08/03 04:26:46;;;;;;;6.07;3.87;;;10.70;99.90;;;;;;5021365;28;20470;-58
2021/08/03 04:29:12;;;;;;;23.57;4.70;;;10.80;99.90;;;;;;5006779;28;20478;-58
2021/08/03 04:31:38;;;;;;;10.60;3.30;;;10.80;99.90;;;;;;5016231;28;20483;-57
2021/08/03 04:34:04;;;;;;;3.73;2.90;;;10.80;99.90;;;;;;5026203;28;20180;-57
2021/08/03 04:36:29;;;;;;;8.10;2.90;;;10.80;99.90;;;;;;5033270;28;21776;-57
2021/08/03 04:38:55;;;;;;;2.63;2.40;;;10.70;99.90;;;;;;5031979;28;20176;-56
2021/08/03 04:41:22;;;;;;;5.77;2.83;;;10.70;99.90;;;;;;5026785;28;20176;-57
2021/08/03 04:43:47;;;;;;;6.83;2.43;;;10.70;99.90;;;;;;5024845;28;20768;-58
2021/08/03 04:46:13;;;;;;;7.07;3.10;;;10.70;99.90;;;;;;5014592;28;21274;-56
2021/08/03 04:48:39;;;;;;;2.50;2.30;;;10.70;99.90;;;;;;5009974;28;20180;-55
2021/08/03 04:51:06;;;;;;;2.60;2.30;;;10.80;99.90;;;;;;5022985;28;20442;-58
2021/08/03 04:53:32;;;;;;;5.97;2.63;;;10.70;99.90;;;;;;5019528;28;20230;-57
2021/08/03 04:55:58;;;;;;;2.70;2.50;;;10.80;99.90;;;;;;5006947;28;20458;-59
2021/08/03 04:58:23;;;;;;;14.93;2.50;;;10.80;99.90;;;;;;5008922;28;20500;-57
2021/08/03 05:00:50;;;;;;;3.63;2.80;;;10.80;99.90;;;;;;5018054;28;20186;-59
2021/08/03 05:03:16;;;;;;;3.80;2.40;;;10.80;99.90;;;;;;5024004;28;20251;-59
2021/08/03 05:05:41;;;;;;;2.83;2.50;;;10.70;99.90;;;;;;5020884;28;20916;-61
2021/08/03 05:08:07;;;;;;;10.73;2.80;;;10.80;99.90;;;;;;5018454;28;20190;-58
2021/08/03 05:10:33;;;;;;;5.80;2.80;;;10.80;99.90;;;;;;5020878;28;20203;-58
2021/08/03 05:12:59;;;;;;;6.33;2.60;;;10.80;99.90;;;;;;5020733;28;20251;-60
2021/08/03 05:15:25;;;;;;;12.33;3.47;;;10.80;99.90;;;;;;5021074;28;20171;-59
2021/08/03 05:17:51;;;;;;;3.93;2.80;;;10.80;99.90;;;;;;5015777;28;20442;-63
2021/08/03 05:20:17;;;;;;;12.00;3.07;;;10.80;99.90;;;;;;5019788;28;20500;-62
2021/08/03 05:22:44;;;;;;;4.50;2.80;;;10.80;99.90;;;;;;5007614;28;20781;-59
2021/08/03 05:25:10;;;;;;;5.10;3.20;;;10.80;99.90;;;;;;5027191;28;20188;-59
2021/08/03 05:27:36;;;;;;;4.43;3.30;;;10.90;99.90;;;;;;5026836;28;21013;-59
2021/08/03 05:30:02;;;;;;;4.23;2.77;;;10.90;99.90;;;;;;5026465;28;20457;-61
2021/08/03 05:32:27;;;;;;;3.90;2.70;;;10.90;99.90;;;;;;5026754;28;20199;-57
2021/08/03 05:34:53;;;;;;;13.03;4.03;;;10.90;99.90;;;;;;5029312;28;20433;-58
2021/08/03 05:37:19;;;;;;;6.93;4.27;;;10.90;99.90;;;;;;5024583;28;20191;-58
2021/08/03 05:39:44;;;;;;;10.13;4.30;;;10.90;99.90;;;;;;5023580;28;20178;-59
2021/08/03 05:42:10;;;;;;;13.53;3.50;;;10.90;99.90;;;;;;5026481;28;20202;-60
2021/08/03 05:44:36;;;;;;;4.87;3.30;;;11.00;99.90;;;;;;5025595;28;20195;-57
2021/08/03 05:47:02;;;;;;;6.80;4.10;;;11.00;99.90;;;;;;5026953;28;20298;-57
2021/08/03 05:49:28;;;;;;;10.33;3.20;;;11.00;99.90;;;;;;5021564;28;20200;-58
2021/08/03 05:51:55;;;;;;;4.00;3.40;;;11.00;99.90;;;;;;5023786;28;20437;-58
2021/08/03 05:54:21;;;;;;;3.40;3.07;;;11.10;99.90;;;;;;5030104;28;21904;-59
2021/08/03 05:56:47;;;;;;;4.67;3.23;;;11.20;99.90;;;;;;5024047;28;20942;-60
2021/08/03 05:59:13;;;;;;;5.97;4.90;;;11.20;99.90;;;;;;5025123;28;20520;-58
2021/08/03 06:01:38;;;;;;;5.33;4.20;;;11.30;99.90;;;;;;5015518;28;20210;-58
2021/08/03 06:04:04;;;;;;;6.13;4.40;;;11.30;99.90;;;;;;5029682;28;20211;-57
2021/08/03 06:06:37;;;;;;;6.03;3.87;;;11.30;99.90;;;;;;5020669;28;20199;-58
2021/08/03 06:09:03;;;;;;;4.90;4.17;;;11.30;99.90;;;;;;5011315;28;20266;-57
2021/08/03 06:11:29;;;;;;;7.37;5.93;;;11.30;99.90;;;;;;5029112;28;20533;-59
2021/08/03 06:13:57;;;;;;;11.83;5.40;;;11.30;99.90;;;;;;5027573;28;21007;-58
2021/08/03 06:16:24;;;;;;;8.20;5.40;;;11.30;99.90;;;;;;5028930;28;20199;-58
2021/08/03 06:18:53;;;;;;;9.07;5.50;;;11.30;99.90;;;;;;5021648;28;20441;-58
2021/08/03 06:21:20;;;;;;;9.10;6.07;;;11.30;99.90;;;;;;5025842;28;20427;-58
2021/08/03 06:23:48;;;;;;;9.27;6.50;;;11.30;99.90;;;;;;5027760;28;20449;-58
2021/08/03 06:26:15;;;;;;;7.13;5.43;;;11.40;99.90;;;;;;5016028;28;20474;-58
2021/08/03 06:28:44;;;;;;;10.37;7.63;;;11.50;99.90;;;;;;5026959;28;20438;-57
2021/08/03 06:31:10;;;;;;;16.27;8.40;;;11.60;99.90;;;;;;5022362;28;20948;-58
2021/08/03 06:33:36;;;;;;;17.93;8.90;;;11.70;99.90;;;;;;5026830;28;20430;-60
2021/08/03 06:36:02;;;;;;;11.27;8.10;;;11.70;99.90;;;;;;5010999;28;20234;-54
2021/08/03 06:38:28;;;;;;;10.77;7.80;;;11.80;99.90;;;;;;5022259;28;20183;-54
2021/08/03 06:41:21;;;;;;;9.00;6.70;;;11.90;99.90;;;;;;5028162;28;20461;-53
2021/08/03 06:44:04;;;;;;;9.33;6.93;;;12.00;99.90;;;;;;5025944;28;20182;-54
2021/08/03 06:46:34;;;;;;;10.70;7.67;;;12.10;99.90;;;;;;5001988;28;20470;-52
2021/08/03 06:49:06;;;;;;;12.87;9.13;;;12.20;99.90;;;;;;5021125;28;20818;-52
2021/08/03 06:51:37;;;;;;;12.23;9.10;;;12.20;99.90;;;;;;5025166;28;20779;-53
2021/08/03 06:54:10;;;;;;;13.30;8.60;;;12.30;99.90;;;;;;5020057;28;20462;-58
2021/08/03 06:56:46;;;;;;;17.30;9.70;;;12.40;99.90;;;;;;5013527;28;20990;-56
2021/08/03 06:59:16;;;;;;;22.00;8.87;;;12.50;99.90;;;;;;5014468;28;20508;-56
2021/08/03 07:01:50;;;;;;;11.93;7.83;;;12.60;99.90;;;;;;5010923;28;20437;-56
2021/08/03 07:04:24;;;;;;;8.90;6.50;;;12.70;99.90;;;;;;5015883;28;20483;-56
2021/08/03 07:06:59;;;;;;;9.10;7.00;;;12.80;99.90;;;;;;5017832;28;20449;-56
2021/08/03 07:09:27;;;;;;;13.53;7.13;;;12.90;99.90;;;;;;5010904;28;20501;-55
2021/08/03 07:11:53;;;;;;;11.77;6.60;;;13.00;99.90;;;;;;5007538;28;20725;-57
2021/08/03 07:14:21;;;;;;;7.33;5.93;;;13.10;99.90;;;;;;5018525;28;20481;-55
2021/08/03 07:16:48;;;;;;;7.87;4.80;;;13.20;99.90;;;;;;5027058;28;20446;-55
2021/08/03 07:19:16;;;;;;;8.13;5.03;;;13.30;99.90;;;;;;5027010;28;20438;-55
2021/08/03 07:21:42;;;;;;;9.43;4.73;;;13.30;99.90;;;;;;4998335;28;20446;-55
2021/08/03 07:24:12;;;;;;;9.33;4.23;;;13.40;99.90;;;;;;5018529;28;22016;-55
2021/08/03 07:26:38;;;;;;;12.97;4.70;;;13.40;99.90;;;;;;5017224;28;20473;-55
2021/08/03 07:29:04;;;;;;;6.37;4.70;;;13.50;99.90;;;;;;5021942;28;20508;-54
2021/08/03 07:31:31;;;;;;;11.17;6.00;;;13.50;99.90;;;;;;5021695;28;20435;-54
2021/08/03 07:33:56;;;;;;;11.23;6.30;;;13.60;99.90;;;;;;5017813;28;20176;-53
2021/08/03 07:36:22;;;;;;;15.07;6.90;;;13.60;99.90;;;;;;5020634;28;20450;-55
2021/08/03 07:38:53;;;;;;;14.60;7.63;;;13.60;99.90;;;;;;5016259;28;21558;-55
2021/08/03 07:41:20;;;;;;;12.40;6.20;;;13.70;99.90;;;;;;5012826;28;20184;-56
2021/08/03 07:43:46;;;;;;;12.10;5.03;;;13.70;99.90;;;;;;5013061;28;21084;-55
2021/08/03 07:46:12;;;;;;;10.47;5.30;;;13.80;99.90;;;;;;5013424;28;20473;-56
2021/08/03 07:48:38;;;;;;;9.10;4.60;;;13.80;99.90;;;;;;5018227;28;20195;-54
2021/08/03 07:51:05;;;;;;;6.10;4.57;;;13.90;99.90;;;;;;5019526;28;21001;-55
2021/08/03 07:53:31;;;;;;;13.80;4.70;;;13.90;99.90;;;;;;5017677;28;20183;-58
2021/08/03 07:55:57;;;;;;;13.07;6.10;;;14.00;99.90;;;;;;5004079;28;22221;-58
2021/08/03 07:58:23;;;;;;;14.27;6.37;;;14.10;99.90;;;;;;5017720;28;20183;-61
2021/08/03 08:00:48;;;;;;;13.70;7.40;;;14.20;99.90;;;;;;5017654;28;20179;-59
2021/08/03 08:03:14;;;;;;;12.03;6.60;;;14.30;99.90;;;;;;4997578;28;20447;-59
2021/08/03 08:05:39;;;;;;;8.00;5.60;;;14.40;99.90;;;;;;5018797;28;20676;-58
2021/08/03 08:08:07;;;;;;;11.07;5.80;;;14.60;99.90;;;;;;5017943;28;20176;-59
2021/08/03 08:10:32;;;;;;;10.43;6.40;;;14.70;99.90;;;;;;5023481;28;20234;-60
2021/08/03 08:12:58;;;;;;;12.03;6.50;;;14.80;99.90;;;;;;5016971;28;20542;-60
2021/08/03 08:15:23;;;;;;;9.83;5.73;;;14.90;99.90;;;;;;5021863;28;20685;-59
2021/08/03 08:17:49;;;;;;;8.53;5.57;;;15.00;99.90;;;;;;5017963;28;20188;-60
2021/08/03 08:20:15;;;;;;;9.50;5.30;;;15.10;99.90;;;;;;5005139;28;20215;-59
2021/08/03 08:22:42;;;;;;;7.63;5.43;;;15.30;99.90;;;;;;5021337;28;20175;-60
2021/08/03 08:25:10;;;;;;;11.17;5.40;;;15.50;99.90;;;;;;5020991;28;20167;-58
2021/08/03 08:27:40;;;;;;;9.43;5.47;;;15.60;99.90;;;;;;5022476;28;20447;-59
2021/08/03 08:30:08;;;;;;;13.60;5.53;;;15.70;99.90;;;;;;5020509;28;20486;-57
2021/08/03 08:32:35;;;;;;;15.10;5.30;;;15.70;99.90;;;;;;5023880;28;20433;-58
2021/08/03 08:35:03;;;;;;;10.90;5.63;;;15.70;99.90;;;;;;5022561;28;20434;-58
2021/08/03 08:37:29;;;;;;;8.67;5.40;;;15.70;99.90;;;;;;5026223;28;20973;-56
2021/08/03 08:39:54;;;;;;;11.00;5.57;;;15.80;99.90;;;;;;5020790;28;20434;-58
2021/08/03 08:42:20;;;;;;;5.20;4.33;;;15.80;99.90;;;;;;5026820;28;20637;-57
2021/08/03 08:44:48;;;;;;;7.53;4.90;;;15.90;99.90;;;;;;5025172;28;20551;-57
2021/08/03 08:47:16;;;;;;;6.30;4.50;;;16.00;99.90;;;;;;5034203;23;20228;-54
2021/08/03 08:49:45;;;;;;;10.70;5.60;;;16.10;99.90;;;;;;4967885;28;20958;-54
2021/08/03 08:52:15;;;;;;;5.20;4.30;;;16.20;99.90;;;;;;4986220;28;20436;-55
2021/08/03 08:54:41;;;;;;;7.07;4.83;;;16.40;99.90;;;;;;4960709;28;20447;-55
2021/08/03 08:57:08;;;;;;;7.03;4.33;;;16.40;99.90;;;;;;4987802;28;20448;-56
2021/08/03 08:59:34;;;;;;;10.47;4.00;;;16.50;99.90;;;;;;4989612;28;20257;-55
2021/08/03 09:01:59;;;;;;;4.20;3.30;;;16.60;99.90;;;;;;4984740;28;20924;-55
2021/08/03 09:04:25;;;;;;;9.67;4.00;;;16.60;99.90;;;;;;4980094;28;20212;-56
2021/08/03 09:07:08;;;;;;;6.07;3.90;;;16.60;99.90;;;;;;4966002;28;20680;-56
2021/08/03 09:09:42;;;;;;;4.23;3.57;;;16.70;99.90;;;;;;4986102;28;20284;-56
2021/08/03 09:12:08;;;;;;;4.73;3.50;;;16.70;99.90;;;;;;4957887;28;20475;-55
2021/08/03 09:14:36;;;;;;;4.37;3.93;;;16.70;99.90;;;;;;4982872;28;20518;-55
2021/08/03 09:17:02;;;;;;;6.93;3.47;;;16.80;99.90;;;;;;4979567;28;20447;-56
2021/08/03 09:19:37;;;;;;;4.70;3.80;;;16.80;99.90;;;;;;4977993;28;20587;-56
2021/08/03 09:22:11;;;;;;;4.37;3.67;;;16.90;99.90;;;;;;4969315;28;20435;-54
2021/08/03 09:24:37;;;;;;;3.20;2.90;;;16.90;99.90;;;;;;4968507;28;20550;-56
2021/08/03 09:27:03;;;;;;;4.90;3.23;;;17.00;99.90;;;;;;4984315;28;20460;-56
2021/08/03 09:29:42;;;;;;;5.23;3.17;;;17.10;99.90;;;;;;4974289;28;20197;-55
2021/08/03 09:32:08;;;;;;;4.20;3.07;;;17.10;99.90;;;;;;4978261;28;20276;-58
2021/08/03 09:34:34;;;;;;;3.47;3.17;;;17.10;99.90;;;;;;4953351;28;20435;-56
2021/08/03 09:37:02;;;;;;;4.00;3.00;;;17.10;99.90;;;;;;4973480;28;20200;-56
2021/08/03 09:39:44;;;;;;;5.97;3.20;;;17.10;99.90;;;;;;4971084;28;20280;-54
2021/08/03 09:42:11;;;;;;;3.37;3.00;;;17.20;99.90;;;;;;4977492;28;20439;-56
2021/08/03 09:44:53;;;;;;;7.87;2.90;;;17.20;99.90;;;;;;4979095;28;20435;-56
2021/08/03 09:47:21;;;;;;;4.67;3.00;;;17.20;99.90;;;;;;4967599;28;20452;-56
2021/08/03 09:49:49;;;;;;;6.03;3.30;;;17.20;99.90;;;;;;4982774;28;20547;-57
2021/08/03 09:52:25;;;;;;;3.70;3.20;;;17.30;99.90;;;;;;4994926;28;20576;-54
2021/08/03 09:55:07;;;;;;;6.07;3.30;;;17.30;99.90;;;;;;4967695;28;20454;-56
2021/08/03 09:57:34;;;;;;;3.70;2.53;;;17.30;99.90;;;;;;4983762;28;20443;-54
2021/08/03 09:59:59;;;;;;;3.60;3.03;;;17.40;99.90;;;;;;4975466;28;20455;-54
2021/08/03 10:02:27;;;;;;;6.53;3.10;;;17.40;99.90;;;;;;4980190;28;20786;-54
2021/08/03 10:04:54;;;;;;;3.33;3.03;;;17.50;99.90;;;;;;4971247;28;20177;-55
2021/08/03 10:07:20;;;;;;;5.23;2.87;;;17.70;99.90;;;;;;4979766;28;20555;-55
2021/08/03 10:09:48;;;;;;;2.90;2.50;;;17.80;99.70;;;;;;4978627;28;20460;-54
2021/08/03 10:12:15;;;;;;;4.20;3.17;;;18.00;99.60;;;;;;4980064;28;20514;-54
2021/08/03 10:14:41;;;;;;;2.80;2.60;;;18.10;99.60;;;;;;4978526;28;20530;-53
2021/08/03 10:17:10;;;;;;;4.97;2.50;;;18.40;99.10;;;;;;4964628;28;20551;-54
2021/08/03 10:19:37;;;;;;;4.47;2.70;;;18.50;98.50;;;;;;4966728;28;20519;-56
2021/08/03 10:22:26;;;;;;;2.30;2.10;;;18.70;98.20;;;;;;4972432;28;21092;-53
2021/08/03 10:25:15;;;;;;;2.50;2.30;;;18.80;98.20;;;;;;4985494;28;20432;-54
2021/08/03 10:27:50;;;;;;;3.90;2.20;;;18.80;94.10;;;;;;4986451;28;20488;-55
2021/08/03 10:30:28;;;;;;;2.63;1.97;;;18.80;94.20;;;;;;4985966;28;20619;-54
2021/08/03 10:32:56;;;;;;;8.60;2.30;;;18.80;95.10;;;;;;4987978;28;20427;-54
2021/08/03 10:35:47;;;;;;;2.33;2.13;;;18.90;96.20;;;;;;4968902;28;20794;-54
2021/08/03 10:38:21;;;;;;;4.33;1.70;;;18.90;96.10;;;;;;4977870;28;20459;-54
2021/08/03 10:40:47;;;;;;;2.10;1.93;;;19.00;94.70;;;;;;4959038;28;20948;-55
2021/08/03 10:43:36;;;;;;;1.97;1.83;;;19.00;91.40;;;;;;4986476;28;20443;-55
2021/08/03 10:46:07;;;;;;;3.03;1.90;;;19.00;90.70;;;;;;4985785;28;20425;-55
2021/08/03 10:48:43;;;;;;;1.70;1.53;;;19.10;90.00;;;;;;4985496;28;21092;-54
2021/08/03 10:51:18;;;;;;;2.57;1.90;;;19.10;91.70;;;;;;4980681;28;20895;-56
2021/08/03 10:54:13;;;;;;;1.90;1.50;;;19.10;90.70;;;;;;4984390;28;20441;-54
2021/08/03 10:56:54;;;;;;;1.70;1.57;;;19.10;82.10;;;;;;4979246;28;20429;-54
2021/08/03 10:59:32;;;;;;;2.00;1.73;;;18.90;80.20;;;;;;4989410;28;20994;-52
2021/08/03 11:01:59;;;;;;;1.90;1.80;;;18.80;82.60;;;;;;4983411;28;20440;-53
2021/08/03 11:04:43;;;;;;;3.73;1.83;;;18.60;82.80;;;;;;4987387;28;20610;-53
2021/08/03 11:07:29;;;;;;;2.50;1.80;;;18.50;89.10;;;;;;4984544;28;20456;-53
2021/08/03 11:10:20;;;;;;;6.23;2.30;;;18.40;91.60;;;;;;4979846;28;20478;-55
2021/08/03 11:12:48;;;;;;;2.97;2.10;;;18.30;93.90;;;;;;4970910;28;21073;-53
2021/08/03 11:15:23;;;;;;;4.13;2.30;;;18.20;94.90;;;;;;4976042;28;20440;-53
2021/08/03 11:17:55;;;;;;;2.50;2.17;;;18.10;95.90;;;;;;4986114;28;20988;-53
2021/08/03 11:20:36;;;;;;;2.90;2.00;;;18.00;96.30;;;;;;4982294;28;21134;-55
2021/08/03 11:23:10;;;;;;;4.37;2.20;;;17.80;96.10;;;;;;4987531;28;20440;-56
2021/08/03 11:25:37;;;;;;;3.10;2.23;;;17.60;98.10;;;;;;4985675;28;20452;-55
2021/08/03 11:28:32;;;;;;;2.60;2.33;;;17.40;99.90;;;;;;4981819;28;20505;-55
2021/08/03 11:30:58;;;;;;;2.00;1.80;;;17.20;99.90;;;;;;4965884;28;20469;-55
2021/08/03 11:33:25;;;;;;;2.53;2.10;;;17.00;99.90;;;;;;4986089;28;20514;-54
2021/08/03 11:35:50;;;;;;;2.30;2.10;;;16.70;99.90;;;;;;4981764;28;20216;-56
2021/08/03 11:38:19;;;;;;;3.03;2.03;;;16.50;99.90;;;;;;4987647;28;20539;-56
2021/08/03 11:40:45;;;;;;;2.40;1.77;;;16.40;99.90;;;;;;4984795;28;20196;-54
2021/08/03 11:43:12;;;;;;;5.40;1.80;;;16.20;99.90;;;;;;4988817;28;20444;-56
2021/08/03 11:45:40;;;;;;;2.43;2.23;;;16.10;99.90;;;;;;4984660;28;20182;-56
2021/08/03 11:48:25;;;;;;;2.27;2.07;;;16.00;99.90;;;;;;4986596;28;20468;-56
2021/08/03 11:50:51;;;;;;;1.57;1.47;;;15.90;99.90;;;;;;4985287;28;20522;-56
2021/08/03 11:53:19;;;;;;;2.43;2.10;;;15.80;99.90;;;;;;4980329;28;20440;-55
2021/08/03 11:55:54;;;;;;;3.13;2.27;;;15.80;99.90;;;;;;4984691;28;20542;-55
2021/08/03 11:58:22;;;;;;;1.80;1.70;;;15.70;99.90;;;;;;4983848;28;20521;-55
2021/08/03 12:00:52;;;;;;;2.27;1.70;;;15.80;99.90;;;;;;4988251;28;20487;-56
2021/08/03 12:03:28;;;;;;;3.30;1.83;;;15.80;99.90;;;;;;4983406;28;20440;-55
2021/08/03 12:05:54;;;;;;;2.80;1.83;;;15.90;99.90;;;;;;4962292;28;21051;-55
2021/08/03 12:08:20;;;;;;;2.30;2.10;;;16.00;99.90;;;;;;4978737;28;20435;-56
2021/08/03 12:10:49;;;;;;;3.17;1.83;;;16.10;99.90;;;;;;4987288;28;20224;-57
2021/08/03 12:13:27;;;;;;;2.50;1.50;;;16.10;99.90;;;;;;4989456;28;20487;-57
2021/08/03 12:15:55;;;;;;;2.33;1.90;;;16.10;99.90;;;;;;4978581;28;20497;-57
2021/08/03 12:18:21;;;;;;;1.63;1.37;;;16.00;99.90;;;;;;4980341;28;20907;-57
2021/08/03 12:20:50;;;;;;;1.33;1.23;;;16.00;99.90;;;;;;4983374;28;20436;-56
2021/08/03 12:23:18;;;;;;;1.70;1.60;;;16.00;99.90;;;;;;4991299;28;20429;-56
2021/08/03 12:25:51;;;;;;;1.53;1.43;;;15.90;99.90;;;;;;4993248;28;20972;-57
2021/08/03 12:28:31;;;;;;;3.53;2.00;;;15.80;99.90;;;;;;4986384;28;20455;-57
2021/08/03 12:31:00;;;;;;;1.73;1.53;;;15.80;99.90;;;;;;4973219;28;20596;-57
2021/08/03 12:33:31;;;;;;;2.27;1.93;;;15.70;99.90;;;;;;4984909;28;20851;-57
2021/08/03 12:36:07;;;;;;;2.17;1.90;;;15.70;99.90;;;;;;4990489;28;20555;-56
2021/08/03 12:38:35;;;;;;;1.90;1.80;;;15.70;99.90;;;;;;4992551;28;20571;-57
2021/08/03 12:41:20;;;;;;;1.73;1.63;;;15.70;99.90;;;;;;4983431;28;20858;-57
2021/08/03 12:43:47;;;;;;;2.90;1.60;;;15.70;99.90;;;;;;4986791;28;20463;-56
2021/08/03 12:46:13;;;;;;;2.30;1.87;;;15.70;99.90;;;;;;4973658;28;20443;-57
2021/08/03 12:48:52;;;;;;;2.57;2.00;;;15.70;99.90;;;;;;4993836;28;20490;-57
2021/08/03 12:51:28;;;;;;;2.37;1.70;;;15.60;99.90;;;;;;4991049;28;20486;-57
2021/08/03 12:54:14;;;;;;;1.60;1.50;;;15.60;99.90;;;;;;4972431;28;20443;-57
2021/08/03 12:56:59;;;;;;;1.87;1.73;;;15.70;99.90;;;;;;4983668;28;20889;-56